createdAt,value
2018-03-17T00:00:13.842Z,3.50
2018-03-17T00:02:40.405Z,3.50
2018-03-17T00:05:06.945Z,3.40
2018-03-17T00:07:33.509Z,3.40
2018-03-17T00:10:00.071Z,3.30
2018-03-17T00:12:26.609Z,3.40
2018-03-17T00:14:53.170Z,3.50
2018-03-17T00:17:19.734Z,3.50
2018-03-17T00:19:46.376Z,3.50
2018-03-17T00:22:12.946Z,3.50
2018-03-17T00:24:39.881Z,3.50
2018-03-17T00:27:06.540Z,3.50
2018-03-17T00:29:33.113Z,3.50
2018-03-17T00:32:00.044Z,3.40
2018-03-17T00:34:26.579Z,3.40
2018-03-17T00:36:53.150Z,3.30
2018-03-17T00:39:20.150Z,3.20
2018-03-17T00:41:46.694Z,3.20
2018-03-17T00:44:13.270Z,3.10
2018-03-17T00:46:39.837Z,3.20
2018-03-17T00:49:06.385Z,3.20
2018-03-17T00:51:32.953Z,3.20
2018-03-17T00:53:59.902Z,3.10
2018-03-17T00:56:26.853Z,3.10
2018-03-17T00:58:53.418Z,3.10
2018-03-17T01:01:20.025Z,3.00
2018-03-17T01:03:46.713Z,2.90
2018-03-17T01:06:13.662Z,2.90
2018-03-17T01:08:41.222Z,2.90
2018-03-17T01:11:14.754Z,2.90
2018-03-17T01:13:41.684Z,2.90
2018-03-17T01:16:08.242Z,2.90
2018-03-17T01:18:34.804Z,2.80
2018-03-17T01:21:01.741Z,2.80
2018-03-17T01:23:28.277Z,2.80
2018-03-17T01:25:54.849Z,2.80
2018-03-17T01:28:21.817Z,2.90
2018-03-17T01:30:48.725Z,2.90
2018-03-17T01:33:15.290Z,2.90
2018-03-17T01:35:41.866Z,2.80
2018-03-17T01:38:08.815Z,2.80
2018-03-17T01:40:35.402Z,2.80
2018-03-17T01:43:01.983Z,2.80
2018-03-17T01:45:28.509Z,2.80
2018-03-17T01:47:55.113Z,2.80
2018-03-17T01:50:22.124Z,2.80
2018-03-17T01:52:48.749Z,2.80
2018-03-17T01:55:15.318Z,2.60
2018-03-17T01:57:41.973Z,2.60
2018-03-17T02:00:08.622Z,2.60
2018-03-17T02:02:35.229Z,2.60
2018-03-17T02:05:01.898Z,2.60
2018-03-17T02:07:28.448Z,2.60
2018-03-17T02:09:55.038Z,2.60
2018-03-17T02:12:21.607Z,2.60
2018-03-17T02:14:48.139Z,2.60
2018-03-17T02:17:15.125Z,2.50
2018-03-17T02:19:41.816Z,2.50
2018-03-17T02:22:08.483Z,2.50
2018-03-17T02:24:35.053Z,2.60
2018-03-17T02:27:02.038Z,2.70
2018-03-17T02:29:28.571Z,2.70
2018-03-17T02:31:55.128Z,2.70
2018-03-17T02:34:21.718Z,2.70
2018-03-17T02:36:48.345Z,2.70
2018-03-17T02:39:14.981Z,2.70
2018-03-17T02:41:41.629Z,2.60
2018-03-17T02:44:08.162Z,2.60
2018-03-17T02:46:34.829Z,2.60
2018-03-17T02:49:01.391Z,2.60
2018-03-17T02:51:28.025Z,2.60
2018-03-17T02:53:54.613Z,2.50
2018-03-17T02:56:21.253Z,2.50
2018-03-17T02:58:47.873Z,2.50
2018-03-17T03:01:14.438Z,2.50
2018-03-17T03:03:41.015Z,2.40
2018-03-17T03:06:07.718Z,2.40
2018-03-17T03:08:34.396Z,2.40
2018-03-17T03:11:01.045Z,2.40
2018-03-17T03:13:27.574Z,2.40
2018-03-17T03:15:54.138Z,2.30
2018-03-17T03:18:20.701Z,2.40
2018-03-17T03:20:47.231Z,2.40
2018-03-17T03:23:13.789Z,2.40
2018-03-17T03:25:40.345Z,2.20
2018-03-17T03:28:06.916Z,2.10
2018-03-17T03:30:33.854Z,2.20
2018-03-17T03:33:00.421Z,2.20
2018-03-17T03:35:26.965Z,2.20
2018-03-17T03:37:53.902Z,2.30
2018-03-17T03:40:20.505Z,2.30
2018-03-17T03:42:47.042Z,2.30
2018-03-17T03:45:13.606Z,2.20
2018-03-17T03:47:40.179Z,2.10
2018-03-17T03:50:06.722Z,2.10
2018-03-17T03:52:33.290Z,2.20
2018-03-17T03:54:59.871Z,2.20
2018-03-17T03:57:26.393Z,2.20
2018-03-17T03:59:53.321Z,2.10
2018-03-17T04:02:19.916Z,2.10
2018-03-17T04:04:47.024Z,2.20
2018-03-17T04:07:13.589Z,2.20
2018-03-17T04:09:40.149Z,2.20
2018-03-17T04:12:07.057Z,2.20
2018-03-17T04:14:33.617Z,2.20
2018-03-17T04:17:00.182Z,2.20
2018-03-17T04:19:26.758Z,2.10
2018-03-17T04:21:53.738Z,2.00
2018-03-17T04:24:20.354Z,2.00
2018-03-17T04:26:47.254Z,2.10
2018-03-17T04:29:13.928Z,2.10
2018-03-17T04:31:40.492Z,2.10
2018-03-17T04:34:07.025Z,2.20
2018-03-17T04:36:33.585Z,2.20
2018-03-17T04:39:00.163Z,2.20
2018-03-17T04:41:27.068Z,2.20
2018-03-17T04:43:53.634Z,2.20
2018-03-17T04:46:20.210Z,2.20
2018-03-17T04:48:47.225Z,2.20
2018-03-17T04:51:13.788Z,2.20
2018-03-17T04:53:40.394Z,2.10
2018-03-17T04:56:06.925Z,2.00
2018-03-17T04:58:33.485Z,2.10
2018-03-17T05:01:00.063Z,2.00
2018-03-17T05:03:26.645Z,2.00
2018-03-17T05:05:53.573Z,2.10
2018-03-17T05:08:20.142Z,2.10
2018-03-17T05:10:46.670Z,2.00
2018-03-17T05:13:13.251Z,2.00
2018-03-17T05:15:40.268Z,2.10
2018-03-17T05:18:06.802Z,2.00
2018-03-17T05:20:33.390Z,2.10
2018-03-17T05:23:00.334Z,2.10
2018-03-17T05:25:26.872Z,2.10
2018-03-17T05:27:54.006Z,2.00
2018-03-17T05:30:20.666Z,2.00
2018-03-17T05:32:47.254Z,2.00
2018-03-17T05:35:14.282Z,2.00
2018-03-17T05:37:40.872Z,2.00
2018-03-17T05:40:07.834Z,2.00
2018-03-17T05:42:34.418Z,2.00
2018-03-17T05:45:01.059Z,1.90
2018-03-17T05:47:27.600Z,1.90
2018-03-17T05:49:54.785Z,1.90
2018-03-17T05:52:21.355Z,1.90
2018-03-17T05:54:48.089Z,1.90
2018-03-17T05:57:14.709Z,1.90
2018-03-17T05:59:41.286Z,1.90
2018-03-17T06:02:07.822Z,1.90
2018-03-17T06:04:34.378Z,2.00
2018-03-17T06:07:00.957Z,2.10
2018-03-17T06:09:27.498Z,2.00
2018-03-17T06:11:54.074Z,2.00
2018-03-17T06:14:20.669Z,2.00
2018-03-17T06:16:47.324Z,2.10
2018-03-17T06:19:13.889Z,2.10
2018-03-17T06:21:40.458Z,2.10
2018-03-17T06:24:07.475Z,2.10
2018-03-17T06:26:40.826Z,2.10
2018-03-17T06:29:07.758Z,2.00
2018-03-17T06:31:34.294Z,2.00
2018-03-17T06:34:00.897Z,2.10
2018-03-17T06:36:27.587Z,2.20
2018-03-17T06:38:54.514Z,2.30
2018-03-17T06:41:21.085Z,2.30
2018-03-17T06:43:47.666Z,2.20
2018-03-17T06:46:14.581Z,2.30
2018-03-17T06:48:41.141Z,2.30
2018-03-17T06:51:07.715Z,2.40
2018-03-17T06:53:34.238Z,2.50
2018-03-17T06:56:00.805Z,2.60
2018-03-17T06:58:27.429Z,2.90
2018-03-17T07:00:54.177Z,3.10
2018-03-17T07:03:20.793Z,3.50
2018-03-17T07:05:47.370Z,3.70
2018-03-17T07:08:13.998Z,3.90
2018-03-17T07:10:40.646Z,4.00
2018-03-17T07:13:07.213Z,4.10
2018-03-17T07:15:33.744Z,4.10
2018-03-17T07:18:00.301Z,4.20
2018-03-17T07:20:26.870Z,4.30
2018-03-17T07:22:53.403Z,4.40
2018-03-17T07:25:20.020Z,4.50
2018-03-17T07:27:46.934Z,4.40
2018-03-17T07:30:13.474Z,4.40
2018-03-17T07:32:40.074Z,4.40
2018-03-17T07:35:06.641Z,4.30
2018-03-17T07:37:33.173Z,4.00
2018-03-17T07:39:59.758Z,3.90
2018-03-17T07:42:26.313Z,3.80
2018-03-17T07:44:52.838Z,3.70
2018-03-17T07:47:19.410Z,3.70
2018-03-17T07:49:45.997Z,3.70
2018-03-17T07:52:12.526Z,3.50
2018-03-17T07:54:39.461Z,3.40
2018-03-17T07:57:06.035Z,3.40
2018-03-17T07:59:32.929Z,3.60
2018-03-17T08:01:59.493Z,3.60
2018-03-17T08:04:26.069Z,3.70
2018-03-17T08:06:52.597Z,3.80
2018-03-17T08:09:19.180Z,3.80
2018-03-17T08:11:45.742Z,3.80
2018-03-17T08:14:12.269Z,3.90
2018-03-17T08:16:39.481Z,4.10
2018-03-17T08:19:06.086Z,4.10
2018-03-17T08:21:32.986Z,4.30
2018-03-17T08:23:59.550Z,4.30
2018-03-17T08:26:26.114Z,4.30
2018-03-17T08:28:52.658Z,4.20
2018-03-17T08:31:19.236Z,4.20
2018-03-17T08:33:45.834Z,4.30
2018-03-17T08:36:12.390Z,4.40
2018-03-17T08:38:38.982Z,4.50
2018-03-17T08:41:05.572Z,4.60
2018-03-17T08:43:32.106Z,4.70
2018-03-17T08:45:58.725Z,4.80
2018-03-17T08:48:25.277Z,4.80
2018-03-17T08:50:51.822Z,4.90
2018-03-17T08:53:18.406Z,5.00
2018-03-17T08:55:44.966Z,5.00
2018-03-17T08:58:11.520Z,5.10
2018-03-17T09:00:38.082Z,5.00
2018-03-17T09:03:05.034Z,5.00
2018-03-17T09:05:31.565Z,5.00
2018-03-17T09:07:58.158Z,5.10
2018-03-17T09:10:24.757Z,5.10
2018-03-17T09:12:51.327Z,5.30
2018-03-17T09:15:17.998Z,5.40
2018-03-17T09:17:44.571Z,5.40
2018-03-17T09:20:11.121Z,5.40
2018-03-17T09:22:37.691Z,5.50
2018-03-17T09:25:04.274Z,5.60
2018-03-17T09:27:31.242Z,5.90
2018-03-17T09:29:58.177Z,6.10
2018-03-17T09:32:24.803Z,6.10
2018-03-17T09:34:51.354Z,6.00
2018-03-17T09:37:17.921Z,5.90
2018-03-17T09:39:44.489Z,5.90
2018-03-17T09:42:11.415Z,5.70
2018-03-17T09:44:38.261Z,5.70
2018-03-17T09:47:05.112Z,5.70
2018-03-17T09:49:31.906Z,5.70
2018-03-17T09:51:58.868Z,5.60
2018-03-17T09:54:25.806Z,5.60
2018-03-17T09:56:52.715Z,5.60
2018-03-17T09:59:19.282Z,5.60
2018-03-17T10:01:45.850Z,5.60
2018-03-17T10:04:12.386Z,5.50
2018-03-17T10:06:38.959Z,5.70
2018-03-17T10:09:05.902Z,5.70
2018-03-17T10:11:32.810Z,5.70
2018-03-17T10:13:59.390Z,5.80
2018-03-17T10:16:25.958Z,5.80
2018-03-17T10:18:52.897Z,5.60
2018-03-17T10:21:19.470Z,5.70
2018-03-17T10:23:46.462Z,5.60
2018-03-17T10:26:13.053Z,5.60
2018-03-17T10:28:39.631Z,5.60
2018-03-17T10:31:06.550Z,5.60
2018-03-17T10:33:33.189Z,5.60
2018-03-17T10:35:59.834Z,5.60
2018-03-17T10:38:26.416Z,5.60
2018-03-17T10:40:53.327Z,5.50
2018-03-17T10:43:19.941Z,5.50
2018-03-17T10:45:46.898Z,5.40
2018-03-17T10:48:13.866Z,5.30
2018-03-17T10:50:40.470Z,5.30
2018-03-17T10:53:07.038Z,5.30
2018-03-17T10:55:34.040Z,5.30
2018-03-17T10:58:00.812Z,5.30
2018-03-17T11:00:28.077Z,5.30
2018-03-17T11:02:55.446Z,5.30
2018-03-17T11:05:22.462Z,5.30
2018-03-17T11:07:49.142Z,5.30
2018-03-17T11:10:15.688Z,5.30
2018-03-17T11:12:42.262Z,5.20
2018-03-17T11:15:08.991Z,5.20
2018-03-17T11:17:35.571Z,5.20
2018-03-17T11:20:02.186Z,5.10
2018-03-17T11:22:28.764Z,5.00
2018-03-17T11:24:55.302Z,5.00
2018-03-17T11:27:21.861Z,4.90
2018-03-17T11:29:48.797Z,4.90
2018-03-17T11:32:15.341Z,4.90
2018-03-17T11:34:41.943Z,4.90
2018-03-17T11:37:08.517Z,4.90
2018-03-17T11:39:35.046Z,4.90
2018-03-17T11:42:01.652Z,4.90
2018-03-17T11:44:28.596Z,5.00
2018-03-17T11:46:55.234Z,5.00
2018-03-17T11:49:21.818Z,5.00
2018-03-17T11:51:48.773Z,5.00
2018-03-17T11:54:15.695Z,5.00
2018-03-17T11:56:42.399Z,5.00
2018-03-17T11:59:09.047Z,5.00
2018-03-17T12:01:35.595Z,5.00
2018-03-17T12:04:02.167Z,5.00
2018-03-17T12:06:28.735Z,5.10
2018-03-17T12:08:55.287Z,5.10
2018-03-17T12:11:21.867Z,5.10
2018-03-17T12:13:48.850Z,5.10
2018-03-17T12:16:15.383Z,5.10
2018-03-17T12:18:41.962Z,5.10
2018-03-17T12:21:08.529Z,5.10
2018-03-17T12:23:35.066Z,5.00
2018-03-17T12:26:01.676Z,4.90
2018-03-17T12:28:28.304Z,4.80
2018-03-17T12:30:54.834Z,4.80
2018-03-17T12:33:21.466Z,4.80
2018-03-17T12:35:48.021Z,4.60
2018-03-17T12:38:14.562Z,4.60
2018-03-17T12:40:41.121Z,4.60
2018-03-17T12:43:07.687Z,4.60
2018-03-17T12:45:34.594Z,4.60
2018-03-17T12:48:01.161Z,4.60
2018-03-17T12:50:27.783Z,4.60
2018-03-17T12:52:54.337Z,4.60
2018-03-17T12:55:20.909Z,4.50
2018-03-17T12:57:47.506Z,4.50
2018-03-17T13:00:14.037Z,4.50
2018-03-17T13:02:40.971Z,4.50
2018-03-17T13:05:07.558Z,4.50
2018-03-17T13:07:34.090Z,4.60
2018-03-17T13:10:01.053Z,4.80
2018-03-17T13:12:27.633Z,4.80
2018-03-17T13:14:54.162Z,4.90
2018-03-17T13:17:20.745Z,4.90
2018-03-17T13:19:47.327Z,5.00
2018-03-17T13:22:14.238Z,5.00
2018-03-17T13:24:40.821Z,5.10
2018-03-17T13:27:19.736Z,5.00
2018-03-17T13:29:46.730Z,5.10
2018-03-17T13:32:25.831Z,5.00
2018-03-17T13:34:52.445Z,5.00
2018-03-17T13:37:31.156Z,5.00
2018-03-17T13:39:58.150Z,5.10
2018-03-17T13:42:24.722Z,5.10
2018-03-17T13:44:51.250Z,5.30
2018-03-17T13:47:17.815Z,5.30
2018-03-17T13:49:44.394Z,5.30
2018-03-17T13:52:10.921Z,5.30
2018-03-17T13:54:37.489Z,5.20
2018-03-17T13:57:04.053Z,5.20
2018-03-17T13:59:30.622Z,5.10
2018-03-17T14:01:57.200Z,4.90
2018-03-17T14:04:23.781Z,4.90
2018-03-17T14:06:50.723Z,4.90
2018-03-17T14:09:17.670Z,4.90
2018-03-17T14:11:44.262Z,4.90
2018-03-17T14:14:10.819Z,4.90
2018-03-17T14:16:37.394Z,4.80
2018-03-17T14:19:03.985Z,4.70
2018-03-17T14:21:30.902Z,4.60
2018-03-17T14:23:57.476Z,4.60
2018-03-17T14:26:24.095Z,4.60
2018-03-17T14:28:50.637Z,4.60
2018-03-17T14:31:17.197Z,4.70
2018-03-17T14:33:43.830Z,4.60
2018-03-17T14:36:10.385Z,4.60
2018-03-17T14:38:36.954Z,4.60
2018-03-17T14:41:03.529Z,4.40
2018-03-17T14:43:30.442Z,4.40
2018-03-17T14:45:57.018Z,4.40
2018-03-17T14:48:23.598Z,4.40
2018-03-17T14:50:50.134Z,4.30
2018-03-17T14:53:17.073Z,4.10
2018-03-17T14:55:44.022Z,4.10
2018-03-17T14:58:10.558Z,4.10
2018-03-17T15:00:37.121Z,4.10
2018-03-17T15:03:03.776Z,4.00
2018-03-17T15:05:30.688Z,3.80
2018-03-17T15:07:57.250Z,3.80
2018-03-17T15:10:23.824Z,3.80
2018-03-17T15:12:50.730Z,3.70
2018-03-17T15:15:17.323Z,3.80
2018-03-17T15:17:44.266Z,3.80
2018-03-17T15:20:10.802Z,3.80
2018-03-17T15:22:37.422Z,3.80
2018-03-17T15:25:04.038Z,3.80
2018-03-17T15:27:30.942Z,3.70
2018-03-17T15:29:57.508Z,3.70
2018-03-17T15:32:24.065Z,3.70
2018-03-17T15:34:50.671Z,3.60
2018-03-17T15:37:17.255Z,3.60
2018-03-17T15:39:44.156Z,3.60
2018-03-17T15:42:10.685Z,3.60
2018-03-17T15:44:37.627Z,3.50
2018-03-17T15:47:04.226Z,3.50
2018-03-17T15:49:30.759Z,3.60
2018-03-17T15:51:57.339Z,3.60
2018-03-17T15:54:23.937Z,3.60
2018-03-17T15:56:50.574Z,3.60
2018-03-17T15:59:17.514Z,3.60
2018-03-17T16:01:44.132Z,3.60
2018-03-17T16:04:10.702Z,3.60
2018-03-17T16:06:37.315Z,3.60
2018-03-17T16:09:03.954Z,3.60
2018-03-17T16:11:30.515Z,3.60
2018-03-17T16:13:57.093Z,3.50
2018-03-17T16:16:23.673Z,3.60
2018-03-17T16:18:50.580Z,3.50
2018-03-17T16:21:17.154Z,3.50
2018-03-17T16:23:43.719Z,3.40
2018-03-17T16:26:10.725Z,3.40
2018-03-17T16:28:37.294Z,3.40
2018-03-17T16:31:03.878Z,3.40
2018-03-17T16:33:30.793Z,3.30
2018-03-17T16:35:57.407Z,3.30
2018-03-17T16:38:23.969Z,3.30
2018-03-17T16:40:50.522Z,3.30
2018-03-17T16:43:17.098Z,3.30
2018-03-17T16:45:43.690Z,3.30
2018-03-17T16:48:10.221Z,3.30
2018-03-17T16:50:37.154Z,3.30
2018-03-17T16:53:03.734Z,3.30
2018-03-17T16:55:30.321Z,3.30
2018-03-17T16:57:56.882Z,3.30
2018-03-17T17:00:23.442Z,3.30
2018-03-17T17:02:50.030Z,3.30
2018-03-17T17:05:16.602Z,3.30
2018-03-17T17:07:43.169Z,3.30
2018-03-17T17:10:09.718Z,3.30
2018-03-17T17:12:36.304Z,3.20
2018-03-17T17:15:03.349Z,3.20
2018-03-17T17:17:29.958Z,3.20
2018-03-17T17:19:56.545Z,3.20
2018-03-17T17:22:23.498Z,3.10
2018-03-17T17:24:50.050Z,3.10
2018-03-17T17:27:16.627Z,3.00
2018-03-17T17:29:43.219Z,3.10
2018-03-17T17:32:09.774Z,3.10
2018-03-17T17:34:36.346Z,3.00
2018-03-17T17:37:03.326Z,3.00
2018-03-17T17:39:29.858Z,3.00
2018-03-17T17:41:57.080Z,2.90
2018-03-17T17:44:23.698Z,2.90
2018-03-17T17:46:50.309Z,2.90
2018-03-17T17:49:16.865Z,2.90
2018-03-17T17:51:43.852Z,2.90
2018-03-17T17:54:10.414Z,2.90
2018-03-17T17:56:36.985Z,2.80
2018-03-17T17:59:03.564Z,2.80
2018-03-17T18:01:30.122Z,2.70
2018-03-17T18:03:56.702Z,2.70
2018-03-17T18:06:23.447Z,2.70
2018-03-17T18:08:49.988Z,2.60
2018-03-17T18:11:16.562Z,2.60
2018-03-17T18:13:43.153Z,2.60
2018-03-17T18:16:10.071Z,2.40
2018-03-17T18:18:36.642Z,2.40
2018-03-17T18:21:03.210Z,2.40
2018-03-17T18:23:29.770Z,2.30
2018-03-17T18:25:56.353Z,2.10
2018-03-17T18:28:22.921Z,2.00
2018-03-17T18:30:49.454Z,2.00
2018-03-17T18:33:16.089Z,1.90
2018-03-17T18:35:42.732Z,1.80
2018-03-17T18:38:09.270Z,1.80
2018-03-17T18:40:35.848Z,1.70
2018-03-17T18:43:02.410Z,1.80
2018-03-17T18:45:28.952Z,1.80
2018-03-17T18:47:55.569Z,1.80
2018-03-17T18:50:22.137Z,1.80
2018-03-17T18:52:48.684Z,1.70
2018-03-17T18:55:15.262Z,1.60
2018-03-17T18:57:42.216Z,1.70
2018-03-17T19:00:09.126Z,1.70
2018-03-17T19:02:35.713Z,1.70
2018-03-17T19:05:02.330Z,1.70
2018-03-17T19:07:28.874Z,1.70
2018-03-17T19:09:55.449Z,1.70
2018-03-17T19:12:24.093Z,1.70
2018-03-17T19:14:50.673Z,1.60
2018-03-17T19:17:17.242Z,1.60
2018-03-17T19:19:43.873Z,1.60
2018-03-17T19:22:10.437Z,1.40
2018-03-17T19:24:37.006Z,1.30
2018-03-17T19:27:03.949Z,1.30
2018-03-17T19:29:30.509Z,1.30
2018-03-17T19:31:57.454Z,1.30
2018-03-17T19:34:24.018Z,1.30
2018-03-17T19:36:51.032Z,1.30
2018-03-17T19:39:17.682Z,1.30
2018-03-17T19:41:44.331Z,1.20
2018-03-17T19:44:10.923Z,1.10
2018-03-17T19:46:37.938Z,1.10
2018-03-17T19:49:05.202Z,1.10
2018-03-17T19:51:31.738Z,1.10
2018-03-17T19:53:58.302Z,1.10
2018-03-17T19:56:25.270Z,1.10
2018-03-17T19:58:51.810Z,1.10
2018-03-17T20:01:18.418Z,1.10
2018-03-17T20:03:45.308Z,1.10
2018-03-17T20:06:11.854Z,1.00
2018-03-17T20:08:38.500Z,0.90
2018-03-17T20:11:05.074Z,0.90
2018-03-17T20:13:31.714Z,0.80
2018-03-17T20:15:58.289Z,0.70
2018-03-17T20:18:25.345Z,0.70
2018-03-17T20:20:52.256Z,0.70
2018-03-17T20:23:18.908Z,0.70
2018-03-17T20:25:45.493Z,0.50
2018-03-17T20:28:12.394Z,0.50
2018-03-17T20:30:38.957Z,0.50
2018-03-17T20:33:05.612Z,0.50
2018-03-17T20:35:32.221Z,0.50
2018-03-17T20:37:58.832Z,0.50
2018-03-17T20:40:25.398Z,0.40
2018-03-17T20:42:52.971Z,0.40
2018-03-17T20:45:20.538Z,0.40
2018-03-17T20:47:48.415Z,0.40
2018-03-17T20:50:15.411Z,0.40
2018-03-17T20:52:42.080Z,0.40
2018-03-17T20:55:08.645Z,0.10
2018-03-17T20:57:35.282Z,0.10
2018-03-17T21:00:02.029Z,0.20
2018-03-17T21:02:28.602Z,0.10
2018-03-17T21:04:55.225Z,0.00
2018-03-17T21:07:21.890Z,0.00
2018-03-17T21:09:48.624Z,-0.10
2018-03-17T21:12:15.155Z,-0.20
2018-03-17T21:14:41.721Z,-0.20
2018-03-17T21:17:08.298Z,-0.10
2018-03-17T21:19:35.221Z,-0.30
2018-03-17T21:22:01.802Z,-0.30
2018-03-17T21:24:28.773Z,-0.30
2018-03-17T21:26:56.104Z,-0.30
2018-03-17T21:29:22.670Z,-0.40
2018-03-17T21:31:49.625Z,-0.50
2018-03-17T21:34:16.534Z,-0.50
2018-03-17T21:36:43.169Z,-0.50
2018-03-17T21:39:09.821Z,-0.50
2018-03-17T21:41:37.342Z,-0.50
2018-03-17T21:44:03.909Z,-0.50
2018-03-17T21:46:30.857Z,-0.50
2018-03-17T21:48:57.883Z,-0.50
2018-03-17T21:51:24.469Z,-0.50
2018-03-17T21:53:51.118Z,-0.50
2018-03-17T21:56:18.025Z,-0.50
2018-03-17T21:58:44.616Z,-0.50
2018-03-17T22:01:11.619Z,-0.40
2018-03-17T22:03:38.179Z,-0.40
2018-03-17T22:06:04.785Z,-0.50
2018-03-17T22:08:31.725Z,-0.50
2018-03-17T22:10:58.649Z,-0.50
2018-03-17T22:13:25.270Z,-0.50
2018-03-17T22:15:58.905Z,-0.50
2018-03-17T22:18:25.533Z,-0.50
2018-03-17T22:20:52.208Z,-0.50
2018-03-17T22:23:18.763Z,-0.50
2018-03-17T22:25:45.333Z,-0.50
2018-03-17T22:28:12.359Z,-0.50
2018-03-17T22:30:38.898Z,-0.50
2018-03-17T22:33:05.461Z,-0.50
2018-03-17T22:35:32.026Z,-0.50
2018-03-17T22:37:58.623Z,-0.60
2018-03-17T22:40:25.406Z,-0.60
2018-03-17T22:42:52.374Z,-0.60
2018-03-17T22:45:18.916Z,-0.60
2018-03-17T22:47:45.499Z,-0.60
2018-03-17T22:50:12.620Z,-0.60
2018-03-17T22:52:39.369Z,-0.60
2018-03-17T22:55:05.942Z,-0.70
2018-03-17T22:57:32.523Z,-0.80
2018-03-17T22:59:59.066Z,-0.70
2018-03-17T23:02:25.642Z,-0.60
2018-03-17T23:04:52.309Z,-0.60
2018-03-17T23:07:18.903Z,-0.60
2018-03-17T23:09:45.473Z,-0.60
2018-03-17T23:12:12.045Z,-0.70
2018-03-17T23:14:38.598Z,-0.70
2018-03-17T23:17:05.190Z,-0.70
2018-03-17T23:19:32.169Z,-0.70
2018-03-17T23:21:58.709Z,-0.70
2018-03-17T23:24:25.299Z,-0.70
2018-03-17T23:26:51.947Z,-0.80
2018-03-17T23:29:18.597Z,-0.80
2018-03-17T23:31:45.187Z,-0.80
2018-03-17T23:34:12.178Z,-0.90
2018-03-17T23:36:38.849Z,-0.90
2018-03-17T23:39:05.413Z,-0.90
2018-03-17T23:41:32.121Z,-0.90
2018-03-17T23:43:58.686Z,-0.90
2018-03-17T23:46:25.292Z,-0.80
2018-03-17T23:48:52.408Z,-0.90
2018-03-17T23:51:19.011Z,-0.90
2018-03-17T23:53:45.622Z,-0.90
2018-03-17T23:56:12.326Z,-0.90
2018-03-17T23:58:38.913Z,-0.90
